sensor_id;sensor_type;location;lat;lon;timestamp;P1;durP1;ratioP1;P2;durP2;ratioP2
71771;SDS011;59606;52.138;5.424;2022-12-07T00:01:31;6.18;;;2.67;;
71771;SDS011;59606;52.138;5.424;2022-12-07T00:04:00;8.73;;;3.30;;
71771;SDS011;59606;52.138;5.424;2022-12-07T00:06:32;7.87;;;2.53;;
71771;SDS011;59606;52.138;5.424;2022-12-07T00:09:00;7.78;;;2.65;;
71771;SDS011;59606;52.138;5.424;2022-12-07T00:11:26;10.90;;;3.15;;
71771;SDS011;59606;52.138;5.424;2022-12-07T00:13:54;10.07;;;2.55;;
71771;SDS011;59606;52.138;5.424;2022-12-07T00:16:26;6.85;;;2.50;;
71771;SDS011;59606;52.138;5.424;2022-12-07T00:18:55;8.97;;;2.30;;
71771;SDS011;59606;52.138;5.424;2022-12-07T00:21:26;6.13;;;2.97;;
71771;SDS011;59606;52.138;5.424;2022-12-07T00:23:57;6.25;;;2.75;;
71771;SDS011;59606;52.138;5.424;2022-12-07T00:26:24;6.90;;;2.35;;
71771;SDS011;59606;52.138;5.424;2022-12-07T00:28:56;6.00;;;2.47;;
71771;SDS011;59606;52.138;5.424;2022-12-07T00:31:28;6.33;;;2.20;;
71771;SDS011;59606;52.138;5.424;2022-12-07T00:33:59;6.00;;;2.35;;
71771;SDS011;59606;52.138;5.424;2022-12-07T00:36:25;11.02;;;2.35;;
71771;SDS011;59606;52.138;5.424;2022-12-07T00:38:53;9.50;;;2.45;;
71771;SDS011;59606;52.138;5.424;2022-12-07T00:41:22;7.03;;;2.83;;
71771;SDS011;59606;52.138;5.424;2022-12-07T00:43:50;5.30;;;2.40;;
71771;SDS011;59606;52.138;5.424;2022-12-07T00:46:17;7.05;;;2.17;;
71771;SDS011;59606;52.138;5.424;2022-12-07T00:48:44;12.65;;;2.35;;
71771;SDS011;59606;52.138;5.424;2022-12-07T00:51:12;3.67;;;2.28;;
71771;SDS011;59606;52.138;5.424;2022-12-07T00:53:40;9.27;;;2.58;;
71771;SDS011;59606;52.138;5.424;2022-12-07T00:56:14;6.10;;;2.27;;
71771;SDS011;59606;52.138;5.424;2022-12-07T00:58:42;5.72;;;2.30;;
71771;SDS011;59606;52.138;5.424;2022-12-07T01:01:09;13.80;;;2.38;;
71771;SDS011;59606;52.138;5.424;2022-12-07T01:03:37;5.43;;;2.05;;
71771;SDS011;59606;52.138;5.424;2022-12-07T01:06:05;5.80;;;2.50;;
71771;SDS011;59606;52.138;5.424;2022-12-07T01:08:31;8.27;;;2.00;;
71771;SDS011;59606;52.138;5.424;2022-12-07T01:10:59;7.78;;;2.22;;
71771;SDS011;59606;52.138;5.424;2022-12-07T01:13:27;8.23;;;2.08;;
71771;SDS011;59606;52.138;5.424;2022-12-07T01:15:58;6.05;;;1.60;;
71771;SDS011;59606;52.138;5.424;2022-12-07T01:18:29;8.15;;;1.98;;
71771;SDS011;59606;52.138;5.424;2022-12-07T01:21:01;11.17;;;2.67;;
71771;SDS011;59606;52.138;5.424;2022-12-07T01:23:32;7.25;;;1.88;;
71771;SDS011;59606;52.138;5.424;2022-12-07T01:26:01;7.30;;;1.70;;
71771;SDS011;59606;52.138;5.424;2022-12-07T01:28:30;10.77;;;2.25;;
71771;SDS011;59606;52.138;5.424;2022-12-07T01:30:58;7.18;;;2.15;;
71771;SDS011;59606;52.138;5.424;2022-12-07T01:33:26;6.80;;;1.90;;
71771;SDS011;59606;52.138;5.424;2022-12-07T01:35:53;8.07;;;1.55;;
71771;SDS011;59606;52.138;5.424;2022-12-07T01:38:20;13.35;;;2.10;;
71771;SDS011;59606;52.138;5.424;2022-12-07T01:40:53;6.05;;;1.48;;
71771;SDS011;59606;52.138;5.424;2022-12-07T01:43:20;4.82;;;1.50;;
71771;SDS011;59606;52.138;5.424;2022-12-07T01:45:49;3.37;;;1.43;;
71771;SDS011;59606;52.138;5.424;2022-12-07T01:48:16;8.35;;;1.75;;
71771;SDS011;59606;52.138;5.424;2022-12-07T01:50:48;3.80;;;1.08;;
71771;SDS011;59606;52.138;5.424;2022-12-07T01:53:17;8.63;;;1.45;;
71771;SDS011;59606;52.138;5.424;2022-12-07T01:55:44;6.25;;;1.25;;
71771;SDS011;59606;52.138;5.424;2022-12-07T01:58:13;7.73;;;1.50;;
71771;SDS011;59606;52.138;5.424;2022-12-07T02:00:41;6.20;;;1.55;;
71771;SDS011;59606;52.138;5.424;2022-12-07T02:03:15;3.78;;;0.90;;
71771;SDS011;59606;52.138;5.424;2022-12-07T02:05:56;9.23;;;1.10;;
71771;SDS011;59606;52.138;5.424;2022-12-07T02:08:25;9.20;;;1.65;;
71771;SDS011;59606;52.138;5.424;2022-12-07T02:10:52;3.03;;;1.40;;
71771;SDS011;59606;52.138;5.424;2022-12-07T02:13:19;8.10;;;1.55;;
71771;SDS011;59606;52.138;5.424;2022-12-07T02:21:45;5.68;;;1.50;;
71771;SDS011;59606;52.138;5.424;2022-12-07T02:30:06;2.75;;;1.48;;
71771;SDS011;59606;52.138;5.424;2022-12-07T02:32:40;2.53;;;1.05;;
71771;SDS011;59606;52.138;5.424;2022-12-07T02:35:19;4.50;;;1.27;;
71771;SDS011;59606;52.138;5.424;2022-12-07T02:37:55;7.20;;;1.80;;
71771;SDS011;59606;52.138;5.424;2022-12-07T02:40:33;3.47;;;1.15;;
71771;SDS011;59606;52.138;5.424;2022-12-07T02:43:17;4.07;;;1.20;;
71771;SDS011;59606;52.138;5.424;2022-12-07T02:45:49;3.85;;;1.52;;
71771;SDS011;59606;52.138;5.424;2022-12-07T02:48:19;11.20;;;1.80;;
71771;SDS011;59606;52.138;5.424;2022-12-07T02:50:50;5.50;;;1.30;;
71771;SDS011;59606;52.138;5.424;2022-12-07T02:53:30;3.25;;;1.15;;
71771;SDS011;59606;52.138;5.424;2022-12-07T03:05:05;3.17;;;1.10;;
71771;SDS011;59606;52.138;5.424;2022-12-07T03:07:39;4.82;;;1.33;;
71771;SDS011;59606;52.138;5.424;2022-12-07T03:13:17;2.67;;;0.90;;
71771;SDS011;59606;52.138;5.424;2022-12-07T03:18:29;2.87;;;1.10;;
71771;SDS011;59606;52.138;5.424;2022-12-07T03:21:01;11.15;;;1.58;;
71771;SDS011;59606;52.138;5.424;2022-12-07T03:23:33;5.82;;;0.57;;
71771;SDS011;59606;52.138;5.424;2022-12-07T03:26:03;1.90;;;0.70;;
71771;SDS011;59606;52.138;5.424;2022-12-07T03:28:33;7.05;;;0.85;;
71771;SDS011;59606;52.138;5.424;2022-12-07T03:31:50;3.30;;;0.70;;
71771;SDS011;59606;52.138;5.424;2022-12-07T03:34:01;5.35;;;0.80;;
71771;SDS011;59606;52.138;5.424;2022-12-07T03:39:02;4.80;;;0.70;;
71771;SDS011;59606;52.138;5.424;2022-12-07T03:41:44;2.10;;;0.70;;
71771;SDS011;59606;52.138;5.424;2022-12-07T03:44:12;5.70;;;0.77;;
71771;SDS011;59606;52.138;5.424;2022-12-07T03:57:26;5.13;;;0.90;;
71771;SDS011;59606;52.138;5.424;2022-12-07T03:59:55;3.55;;;0.55;;
71771;SDS011;59606;52.138;5.424;2022-12-07T04:02:23;2.70;;;0.82;;
71771;SDS011;59606;52.138;5.424;2022-12-07T04:04:52;3.30;;;0.63;;
71771;SDS011;59606;52.138;5.424;2022-12-07T04:07:19;9.95;;;1.00;;
71771;SDS011;59606;52.138;5.424;2022-12-07T04:09:45;4.07;;;0.83;;
71771;SDS011;59606;52.138;5.424;2022-12-07T04:12:12;4.32;;;1.10;;
71771;SDS011;59606;52.138;5.424;2022-12-07T04:14:38;4.63;;;0.98;;
71771;SDS011;59606;52.138;5.424;2022-12-07T04:17:05;7.20;;;0.75;;
71771;SDS011;59606;52.138;5.424;2022-12-07T04:19:32;3.35;;;0.68;;
71771;SDS011;59606;52.138;5.424;2022-12-07T04:22:00;2.97;;;0.70;;
71771;SDS011;59606;52.138;5.424;2022-12-07T04:24:28;3.22;;;0.60;;
71771;SDS011;59606;52.138;5.424;2022-12-07T04:26:55;3.53;;;0.50;;
71771;SDS011;59606;52.138;5.424;2022-12-07T04:29:21;4.88;;;0.90;;
71771;SDS011;59606;52.138;5.424;2022-12-07T04:31:48;3.58;;;0.82;;
71771;SDS011;59606;52.138;5.424;2022-12-07T04:34:15;2.67;;;1.00;;
71771;SDS011;59606;52.138;5.424;2022-12-07T04:36:43;8.63;;;0.93;;
71771;SDS011;59606;52.138;5.424;2022-12-07T04:39:14;3.15;;;0.88;;
71771;SDS011;59606;52.138;5.424;2022-12-07T04:41:45;2.78;;;0.40;;
71771;SDS011;59606;52.138;5.424;2022-12-07T04:44:12;8.18;;;0.90;;
71771;SDS011;59606;52.138;5.424;2022-12-07T04:46:41;7.53;;;0.67;;
71771;SDS011;59606;52.138;5.424;2022-12-07T04:49:08;4.00;;;0.95;;
71771;SDS011;59606;52.138;5.424;2022-12-07T04:51:34;3.35;;;0.60;;
71771;SDS011;59606;52.138;5.424;2022-12-07T04:54:01;3.25;;;0.45;;
71771;SDS011;59606;52.138;5.424;2022-12-07T04:56:27;1.17;;;0.50;;
71771;SDS011;59606;52.138;5.424;2022-12-07T04:58:54;5.70;;;0.70;;
71771;SDS011;59606;52.138;5.424;2022-12-07T05:01:21;4.63;;;1.20;;
71771;SDS011;59606;52.138;5.424;2022-12-07T05:03:48;3.72;;;1.05;;
71771;SDS011;59606;52.138;5.424;2022-12-07T05:06:15;7.40;;;2.97;;
71771;SDS011;59606;52.138;5.424;2022-12-07T05:08:42;5.47;;;2.15;;
71771;SDS011;59606;52.138;5.424;2022-12-07T05:11:10;5.13;;;1.37;;
71771;SDS011;59606;52.138;5.424;2022-12-07T05:13:56;3.22;;;1.48;;
71771;SDS011;59606;52.138;5.424;2022-12-07T05:16:23;4.88;;;1.27;;
71771;SDS011;59606;52.138;5.424;2022-12-07T05:18:50;3.55;;;1.20;;
71771;SDS011;59606;52.138;5.424;2022-12-07T05:21:17;5.55;;;1.83;;
71771;SDS011;59606;52.138;5.424;2022-12-07T05:23:43;3.90;;;1.00;;
71771;SDS011;59606;52.138;5.424;2022-12-07T05:26:10;3.90;;;1.23;;
71771;SDS011;59606;52.138;5.424;2022-12-07T05:28:36;4.25;;;0.52;;
71771;SDS011;59606;52.138;5.424;2022-12-07T05:31:03;3.78;;;1.00;;
71771;SDS011;59606;52.138;5.424;2022-12-07T05:33:29;4.25;;;0.68;;
71771;SDS011;59606;52.138;5.424;2022-12-07T05:35:56;3.73;;;0.70;;
71771;SDS011;59606;52.138;5.424;2022-12-07T05:38:22;3.42;;;0.80;;
71771;SDS011;59606;52.138;5.424;2022-12-07T05:40:49;5.03;;;1.30;;
71771;SDS011;59606;52.138;5.424;2022-12-07T05:43:15;3.95;;;0.95;;
71771;SDS011;59606;52.138;5.424;2022-12-07T05:45:41;1.60;;;0.55;;
71771;SDS011;59606;52.138;5.424;2022-12-07T05:48:08;2.77;;;0.83;;
71771;SDS011;59606;52.138;5.424;2022-12-07T05:50:34;1.98;;;0.45;;
71771;SDS011;59606;52.138;5.424;2022-12-07T05:53:01;1.38;;;0.63;;
71771;SDS011;59606;52.138;5.424;2022-12-07T05:55:27;2.40;;;0.60;;
71771;SDS011;59606;52.138;5.424;2022-12-07T05:57:54;3.15;;;0.70;;
71771;SDS011;59606;52.138;5.424;2022-12-07T06:00:39;5.10;;;0.70;;
71771;SDS011;59606;52.138;5.424;2022-12-07T06:03:05;4.72;;;0.60;;
71771;SDS011;59606;52.138;5.424;2022-12-07T06:05:32;4.38;;;0.60;;
71771;SDS011;59606;52.138;5.424;2022-12-07T06:07:58;3.33;;;0.70;;
71771;SDS011;59606;52.138;5.424;2022-12-07T06:10:31;4.80;;;0.75;;
71771;SDS011;59606;52.138;5.424;2022-12-07T06:12:57;2.10;;;1.00;;
71771;SDS011;59606;52.138;5.424;2022-12-07T06:15:24;3.15;;;0.80;;
71771;SDS011;59606;52.138;5.424;2022-12-07T06:17:50;4.47;;;0.63;;
71771;SDS011;59606;52.138;5.424;2022-12-07T06:20:17;6.88;;;0.77;;
71771;SDS011;59606;52.138;5.424;2022-12-07T06:22:43;3.15;;;0.60;;
71771;SDS011;59606;52.138;5.424;2022-12-07T06:25:10;3.43;;;0.50;;
71771;SDS011;59606;52.138;5.424;2022-12-07T06:27:36;4.65;;;0.70;;
71771;SDS011;59606;52.138;5.424;2022-12-07T06:30:03;3.63;;;0.50;;
71771;SDS011;59606;52.138;5.424;2022-12-07T06:32:33;4.22;;;0.68;;
71771;SDS011;59606;52.138;5.424;2022-12-07T06:34:59;2.80;;;0.60;;
71771;SDS011;59606;52.138;5.424;2022-12-07T06:37:26;5.30;;;0.83;;
71771;SDS011;59606;52.138;5.424;2022-12-07T06:39:53;8.70;;;0.90;;
71771;SDS011;59606;52.138;5.424;2022-12-07T06:42:19;3.65;;;0.50;;
71771;SDS011;59606;52.138;5.424;2022-12-07T06:44:46;3.92;;;0.52;;
71771;SDS011;59606;52.138;5.424;2022-12-07T06:47:12;5.43;;;0.68;;
71771;SDS011;59606;52.138;5.424;2022-12-07T06:49:58;4.30;;;0.83;;
71771;SDS011;59606;52.138;5.424;2022-12-07T06:52:26;7.97;;;0.68;;
71771;SDS011;59606;52.138;5.424;2022-12-07T06:54:52;4.00;;;0.80;;
71771;SDS011;59606;52.138;5.424;2022-12-07T06:57:18;3.90;;;0.68;;
71771;SDS011;59606;52.138;5.424;2022-12-07T06:59:46;4.60;;;0.82;;
71771;SDS011;59606;52.138;5.424;2022-12-07T07:02:12;4.37;;;0.67;;
71771;SDS011;59606;52.138;5.424;2022-12-07T07:04:39;5.82;;;0.60;;
71771;SDS011;59606;52.138;5.424;2022-12-07T07:07:06;5.35;;;0.65;;
71771;SDS011;59606;52.138;5.424;2022-12-07T07:09:32;7.30;;;1.10;;
71771;SDS011;59606;52.138;5.424;2022-12-07T07:11:59;3.40;;;0.70;;
71771;SDS011;59606;52.138;5.424;2022-12-07T07:14:25;5.07;;;0.87;;
71771;SDS011;59606;52.138;5.424;2022-12-07T07:16:52;7.95;;;0.82;;
71771;SDS011;59606;52.138;5.424;2022-12-07T07:19:18;7.55;;;0.88;;
71771;SDS011;59606;52.138;5.424;2022-12-07T07:21:45;4.88;;;0.85;;
71771;SDS011;59606;52.138;5.424;2022-12-07T07:24:11;2.75;;;0.93;;
71771;SDS011;59606;52.138;5.424;2022-12-07T07:26:38;1.53;;;0.60;;
71771;SDS011;59606;52.138;5.424;2022-12-07T07:29:04;2.58;;;0.60;;
71771;SDS011;59606;52.138;5.424;2022-12-07T07:31:30;4.43;;;0.73;;
71771;SDS011;59606;52.138;5.424;2022-12-07T07:33:57;3.70;;;0.70;;
71771;SDS011;59606;52.138;5.424;2022-12-07T07:36:23;5.05;;;0.90;;
71771;SDS011;59606;52.138;5.424;2022-12-07T07:38:50;3.47;;;0.97;;
71771;SDS011;59606;52.138;5.424;2022-12-07T07:41:16;7.10;;;0.98;;
71771;SDS011;59606;52.138;5.424;2022-12-07T07:43:43;5.65;;;1.13;;
71771;SDS011;59606;52.138;5.424;2022-12-07T07:46:09;2.47;;;0.88;;
71771;SDS011;59606;52.138;5.424;2022-12-07T07:48:36;5.63;;;1.00;;
71771;SDS011;59606;52.138;5.424;2022-12-07T07:51:06;7.57;;;1.00;;
71771;SDS011;59606;52.138;5.424;2022-12-07T07:53:33;4.57;;;1.20;;
71771;SDS011;59606;52.138;5.424;2022-12-07T07:56:00;4.20;;;1.15;;
71771;SDS011;59606;52.138;5.424;2022-12-07T07:58:27;6.78;;;1.20;;
71771;SDS011;59606;52.138;5.424;2022-12-07T08:00:53;5.47;;;1.33;;
71771;SDS011;59606;52.138;5.424;2022-12-07T08:03:20;4.47;;;1.00;;
71771;SDS011;59606;52.138;5.424;2022-12-07T08:05:46;3.00;;;0.60;;
71771;SDS011;59606;52.138;5.424;2022-12-07T08:08:13;7.30;;;0.80;;
71771;SDS011;59606;52.138;5.424;2022-12-07T08:10:39;2.63;;;0.77;;
71771;SDS011;59606;52.138;5.424;2022-12-07T08:13:06;7.82;;;1.15;;
71771;SDS011;59606;52.138;5.424;2022-12-07T08:15:40;4.23;;;0.83;;
71771;SDS011;59606;52.138;5.424;2022-12-07T08:18:11;3.45;;;1.10;;
71771;SDS011;59606;52.138;5.424;2022-12-07T08:20:38;3.10;;;1.05;;
71771;SDS011;59606;52.138;5.424;2022-12-07T08:23:06;5.05;;;1.00;;
71771;SDS011;59606;52.138;5.424;2022-12-07T08:25:33;4.93;;;1.10;;
71771;SDS011;59606;52.138;5.424;2022-12-07T08:27:59;3.90;;;0.97;;
71771;SDS011;59606;52.138;5.424;2022-12-07T08:30:27;6.43;;;1.52;;
71771;SDS011;59606;52.138;5.424;2022-12-07T08:32:54;4.85;;;1.23;;
71771;SDS011;59606;52.138;5.424;2022-12-07T08:35:21;2.03;;;0.80;;
71771;SDS011;59606;52.138;5.424;2022-12-07T08:37:47;7.78;;;1.38;;
71771;SDS011;59606;52.138;5.424;2022-12-07T08:40:14;7.80;;;1.20;;
71771;SDS011;59606;52.138;5.424;2022-12-07T08:42:42;5.13;;;0.85;;
71771;SDS011;59606;52.138;5.424;2022-12-07T08:45:11;8.90;;;1.00;;
71771;SDS011;59606;52.138;5.424;2022-12-07T08:48:22;5.85;;;1.20;;
71771;SDS011;59606;52.138;5.424;2022-12-07T08:50:35;6.40;;;1.33;;
71771;SDS011;59606;52.138;5.424;2022-12-07T08:53:03;2.83;;;0.70;;
71771;SDS011;59606;52.138;5.424;2022-12-07T08:55:33;2.88;;;0.95;;
71771;SDS011;59606;52.138;5.424;2022-12-07T08:58:00;4.22;;;0.70;;
71771;SDS011;59606;52.138;5.424;2022-12-07T09:00:28;2.47;;;0.68;;
71771;SDS011;59606;52.138;5.424;2022-12-07T09:02:55;8.98;;;1.20;;
71771;SDS011;59606;52.138;5.424;2022-12-07T09:05:21;3.40;;;0.90;;
71771;SDS011;59606;52.138;5.424;2022-12-07T09:07:50;5.03;;;0.80;;
71771;SDS011;59606;52.138;5.424;2022-12-07T09:10:20;7.35;;;1.35;;
71771;SDS011;59606;52.138;5.424;2022-12-07T09:12:47;2.40;;;0.80;;
71771;SDS011;59606;52.138;5.424;2022-12-07T09:15:13;2.47;;;1.10;;
71771;SDS011;59606;52.138;5.424;2022-12-07T09:17:40;5.20;;;0.80;;
71771;SDS011;59606;52.138;5.424;2022-12-07T09:20:06;5.53;;;1.25;;
71771;SDS011;59606;52.138;5.424;2022-12-07T09:22:33;3.50;;;0.73;;
71771;SDS011;59606;52.138;5.424;2022-12-07T09:25:00;3.83;;;0.80;;
71771;SDS011;59606;52.138;5.424;2022-12-07T09:27:27;1.55;;;0.98;;
71771;SDS011;59606;52.138;5.424;2022-12-07T09:29:54;6.07;;;1.10;;
71771;SDS011;59606;52.138;5.424;2022-12-07T09:32:21;5.65;;;0.73;;
71771;SDS011;59606;52.138;5.424;2022-12-07T09:34:48;2.67;;;0.50;;
71771;SDS011;59606;52.138;5.424;2022-12-07T09:37:14;3.22;;;0.93;;
71771;SDS011;59606;52.138;5.424;2022-12-07T09:39:41;6.18;;;1.02;;
71771;SDS011;59606;52.138;5.424;2022-12-07T09:42:37;4.00;;;1.07;;
71771;SDS011;59606;52.138;5.424;2022-12-07T09:45:04;2.13;;;0.52;;
71771;SDS011;59606;52.138;5.424;2022-12-07T09:47:33;3.50;;;0.77;;
71771;SDS011;59606;52.138;5.424;2022-12-07T09:50:03;6.22;;;0.80;;
71771;SDS011;59606;52.138;5.424;2022-12-07T09:52:38;3.13;;;0.63;;
71771;SDS011;59606;52.138;5.424;2022-12-07T09:55:15;3.87;;;1.07;;
71771;SDS011;59606;52.138;5.424;2022-12-07T09:57:52;3.03;;;0.68;;
71771;SDS011;59606;52.138;5.424;2022-12-07T10:00:20;4.10;;;0.65;;
71771;SDS011;59606;52.138;5.424;2022-12-07T10:05:24;4.88;;;0.60;;
71771;SDS011;59606;52.138;5.424;2022-12-07T10:07:56;2.08;;;0.50;;
71771;SDS011;59606;52.138;5.424;2022-12-07T10:10:24;3.13;;;0.50;;
71771;SDS011;59606;52.138;5.424;2022-12-07T10:13:00;3.95;;;0.57;;
71771;SDS011;59606;52.138;5.424;2022-12-07T10:18:20;1.65;;;0.63;;
71771;SDS011;59606;52.138;5.424;2022-12-07T10:20:47;3.20;;;0.47;;
71771;SDS011;59606;52.138;5.424;2022-12-07T10:23:15;2.57;;;0.50;;
71771;SDS011;59606;52.138;5.424;2022-12-07T10:25:44;4.70;;;0.70;;
71771;SDS011;59606;52.138;5.424;2022-12-07T10:28:12;4.20;;;0.75;;
71771;SDS011;59606;52.138;5.424;2022-12-07T10:33:36;4.07;;;0.60;;
71771;SDS011;59606;52.138;5.424;2022-12-07T10:36:27;7.13;;;1.20;;
71771;SDS011;59606;52.138;5.424;2022-12-07T10:41:47;2.83;;;1.23;;
71771;SDS011;59606;52.138;5.424;2022-12-07T10:44:32;5.78;;;0.90;;
71771;SDS011;59606;52.138;5.424;2022-12-07T10:52:49;4.53;;;1.00;;
71771;SDS011;59606;52.138;5.424;2022-12-07T11:01:03;5.88;;;0.82;;
71771;SDS011;59606;52.138;5.424;2022-12-07T11:06:41;11.35;;;1.40;;
71771;SDS011;59606;52.138;5.424;2022-12-07T11:12:21;3.95;;;0.93;;
71771;SDS011;59606;52.138;5.424;2022-12-07T11:17:44;4.30;;;0.67;;
71771;SDS011;59606;52.138;5.424;2022-12-07T11:23:48;5.10;;;1.02;;
71771;SDS011;59606;52.138;5.424;2022-12-07T11:29:23;2.88;;;0.63;;
71771;SDS011;59606;52.138;5.424;2022-12-07T11:37:20;4.30;;;0.60;;
71771;SDS011;59606;52.138;5.424;2022-12-07T11:39:51;3.70;;;0.80;;
71771;SDS011;59606;52.138;5.424;2022-12-07T11:42:22;3.35;;;0.75;;
71771;SDS011;59606;52.138;5.424;2022-12-07T11:44:53;4.20;;;0.90;;
71771;SDS011;59606;52.138;5.424;2022-12-07T11:47:38;8.23;;;1.08;;
71771;SDS011;59606;52.138;5.424;2022-12-07T11:55:45;3.90;;;1.17;;
71771;SDS011;59606;52.138;5.424;2022-12-07T12:01:55;3.15;;;0.60;;
71771;SDS011;59606;52.138;5.424;2022-12-07T12:06:43;6.63;;;1.13;;
71771;SDS011;59606;52.138;5.424;2022-12-07T12:09:15;3.10;;;0.50;;
71771;SDS011;59606;52.138;5.424;2022-12-07T12:12:40;4.33;;;0.97;;
71771;SDS011;59606;52.138;5.424;2022-12-07T12:18:23;6.00;;;0.60;;
71771;SDS011;59606;52.138;5.424;2022-12-07T12:21:02;4.03;;;0.77;;
71771;SDS011;59606;52.138;5.424;2022-12-07T12:26:16;4.23;;;0.70;;
71771;SDS011;59606;52.138;5.424;2022-12-07T12:28:58;3.10;;;0.65;;
71771;SDS011;59606;52.138;5.424;2022-12-07T12:33:57;2.58;;;0.50;;
71771;SDS011;59606;52.138;5.424;2022-12-07T12:46:48;6.22;;;0.80;;
71771;SDS011;59606;52.138;5.424;2022-12-07T12:51:57;7.87;;;0.90;;
71771;SDS011;59606;52.138;5.424;2022-12-07T12:55:00;4.70;;;0.80;;
71771;SDS011;59606;52.138;5.424;2022-12-07T12:57:33;4.50;;;0.63;;
71771;SDS011;59606;52.138;5.424;2022-12-07T13:00:14;5.45;;;0.75;;
71771;SDS011;59606;52.138;5.424;2022-12-07T13:02:50;2.63;;;0.73;;
71771;SDS011;59606;52.138;5.424;2022-12-07T13:05:23;2.20;;;0.20;;
71771;SDS011;59606;52.138;5.424;2022-12-07T13:07:54;2.05;;;0.43;;
71771;SDS011;59606;52.138;5.424;2022-12-07T13:10:27;0.88;;;0.30;;
71771;SDS011;59606;52.138;5.424;2022-12-07T13:20:58;4.00;;;0.35;;
71771;SDS011;59606;52.138;5.424;2022-12-07T13:23:26;1.77;;;0.35;;
71771;SDS011;59606;52.138;5.424;2022-12-07T13:26:19;0.70;;;0.20;;
71771;SDS011;59606;52.138;5.424;2022-12-07T13:34:03;2.25;;;0.25;;
71771;SDS011;59606;52.138;5.424;2022-12-07T13:36:37;0.63;;;0.32;;
71771;SDS011;59606;52.138;5.424;2022-12-07T13:41:43;3.38;;;1.33;;
71771;SDS011;59606;52.138;5.424;2022-12-07T13:44:16;0.40;;;0.20;;
71771;SDS011;59606;52.138;5.424;2022-12-07T13:49:41;7.28;;;0.75;;
71771;SDS011;59606;52.138;5.424;2022-12-07T13:52:23;5.57;;;0.70;;
71771;SDS011;59606;52.138;5.424;2022-12-07T13:55:01;1.98;;;0.73;;
71771;SDS011;59606;52.138;5.424;2022-12-07T13:57:40;6.00;;;0.63;;
71771;SDS011;59606;52.138;5.424;2022-12-07T14:00:14;2.50;;;0.80;;
71771;SDS011;59606;52.138;5.424;2022-12-07T14:02:57;4.97;;;1.05;;
71771;SDS011;59606;52.138;5.424;2022-12-07T14:05:29;5.65;;;0.90;;
71771;SDS011;59606;52.138;5.424;2022-12-07T14:10:38;2.60;;;0.70;;
71771;SDS011;59606;52.138;5.424;2022-12-07T14:16:23;2.40;;;0.80;;
71771;SDS011;59606;52.138;5.424;2022-12-07T14:18:51;10.43;;;0.70;;
71771;SDS011;59606;52.138;5.424;2022-12-07T14:21:19;7.18;;;0.77;;
71771;SDS011;59606;52.138;5.424;2022-12-07T14:24:06;5.57;;;0.53;;
71771;SDS011;59606;52.138;5.424;2022-12-07T14:26:35;4.25;;;0.95;;
71771;SDS011;59606;52.138;5.424;2022-12-07T14:31:49;5.88;;;0.68;;
71771;SDS011;59606;52.138;5.424;2022-12-07T14:34:15;2.80;;;0.70;;
71771;SDS011;59606;52.138;5.424;2022-12-07T14:36:42;3.03;;;0.60;;
71771;SDS011;59606;52.138;5.424;2022-12-07T14:39:08;5.97;;;1.15;;
71771;SDS011;59606;52.138;5.424;2022-12-07T14:41:38;9.90;;;0.77;;
71771;SDS011;59606;52.138;5.424;2022-12-07T14:44:18;4.05;;;1.40;;
71771;SDS011;59606;52.138;5.424;2022-12-07T14:46:51;3.28;;;0.73;;
71771;SDS011;59606;52.138;5.424;2022-12-07T14:49:37;6.33;;;1.00;;
71771;SDS011;59606;52.138;5.424;2022-12-07T14:52:05;4.03;;;0.70;;
71771;SDS011;59606;52.138;5.424;2022-12-07T14:54:57;3.50;;;0.70;;
71771;SDS011;59606;52.138;5.424;2022-12-07T14:57:23;2.75;;;0.50;;
71771;SDS011;59606;52.138;5.424;2022-12-07T14:59:50;3.53;;;0.60;;
71771;SDS011;59606;52.138;5.424;2022-12-07T15:02:16;6.30;;;0.90;;
71771;SDS011;59606;52.138;5.424;2022-12-07T15:04:43;3.20;;;0.65;;
71771;SDS011;59606;52.138;5.424;2022-12-07T15:07:15;0.93;;;0.60;;
71771;SDS011;59606;52.138;5.424;2022-12-07T15:09:46;3.80;;;0.70;;
71771;SDS011;59606;52.138;5.424;2022-12-07T15:12:13;2.13;;;0.50;;
71771;SDS011;59606;52.138;5.424;2022-12-07T15:14:39;1.53;;;0.63;;
71771;SDS011;59606;52.138;5.424;2022-12-07T15:17:06;5.05;;;0.57;;
71771;SDS011;59606;52.138;5.424;2022-12-07T15:19:48;0.82;;;0.50;;
71771;SDS011;59606;52.138;5.424;2022-12-07T15:22:14;4.95;;;0.60;;
71771;SDS011;59606;52.138;5.424;2022-12-07T15:24:41;5.05;;;0.70;;
71771;SDS011;59606;52.138;5.424;2022-12-07T15:27:08;3.03;;;1.07;;
71771;SDS011;59606;52.138;5.424;2022-12-07T15:29:34;4.95;;;1.48;;
71771;SDS011;59606;52.138;5.424;2022-12-07T15:32:01;2.35;;;0.60;;
71771;SDS011;59606;52.138;5.424;2022-12-07T15:34:27;4.82;;;2.05;;
71771;SDS011;59606;52.138;5.424;2022-12-07T15:37:04;20.20;;;7.97;;
71771;SDS011;59606;52.138;5.424;2022-12-07T15:39:31;23.83;;;9.63;;
71771;SDS011;59606;52.138;5.424;2022-12-07T15:41:57;21.17;;;8.70;;
71771;SDS011;59606;52.138;5.424;2022-12-07T15:44:24;23.50;;;7.88;;
71771;SDS011;59606;52.138;5.424;2022-12-07T15:47:09;29.85;;;12.35;;
71771;SDS011;59606;52.138;5.424;2022-12-07T15:49:35;20.98;;;9.55;;
71771;SDS011;59606;52.138;5.424;2022-12-07T15:52:02;17.30;;;6.40;;
71771;SDS011;59606;52.138;5.424;2022-12-07T15:54:29;9.68;;;3.38;;
71771;SDS011;59606;52.138;5.424;2022-12-07T15:56:56;13.02;;;5.38;;
71771;SDS011;59606;52.138;5.424;2022-12-07T15:59:23;11.18;;;5.18;;
71771;SDS011;59606;52.138;5.424;2022-12-07T16:01:51;3.67;;;1.90;;
71771;SDS011;59606;52.138;5.424;2022-12-07T16:04:18;9.30;;;2.53;;
71771;SDS011;59606;52.138;5.424;2022-12-07T16:06:44;9.20;;;3.47;;
71771;SDS011;59606;52.138;5.424;2022-12-07T16:09:11;6.80;;;1.65;;
71771;SDS011;59606;52.138;5.424;2022-12-07T16:11:37;5.85;;;1.45;;
71771;SDS011;59606;52.138;5.424;2022-12-07T16:14:04;8.25;;;2.92;;
71771;SDS011;59606;52.138;5.424;2022-12-07T16:16:30;7.33;;;2.60;;
71771;SDS011;59606;52.138;5.424;2022-12-07T16:18:57;5.90;;;2.15;;
71771;SDS011;59606;52.138;5.424;2022-12-07T16:21:24;4.70;;;1.60;;
71771;SDS011;59606;52.138;5.424;2022-12-07T16:23:51;5.57;;;1.75;;
71771;SDS011;59606;52.138;5.424;2022-12-07T16:26:19;7.82;;;2.20;;
71771;SDS011;59606;52.138;5.424;2022-12-07T16:28:52;6.70;;;3.30;;
71771;SDS011;59606;52.138;5.424;2022-12-07T16:31:20;6.45;;;3.78;;
71771;SDS011;59606;52.138;5.424;2022-12-07T16:33:49;12.07;;;5.15;;
71771;SDS011;59606;52.138;5.424;2022-12-07T16:36:16;9.70;;;5.07;;
71771;SDS011;59606;52.138;5.424;2022-12-07T16:39:03;6.78;;;3.22;;
71771;SDS011;59606;52.138;5.424;2022-12-07T16:41:30;6.73;;;2.40;;
71771;SDS011;59606;52.138;5.424;2022-12-07T16:43:56;4.10;;;1.85;;
71771;SDS011;59606;52.138;5.424;2022-12-07T16:46:27;6.53;;;2.35;;
71771;SDS011;59606;52.138;5.424;2022-12-07T16:48:54;9.70;;;1.77;;
71771;SDS011;59606;52.138;5.424;2022-12-07T16:51:21;3.40;;;1.55;;
71771;SDS011;59606;52.138;5.424;2022-12-07T16:53:47;3.17;;;1.20;;
71771;SDS011;59606;52.138;5.424;2022-12-07T16:56:15;3.38;;;1.13;;
71771;SDS011;59606;52.138;5.424;2022-12-07T16:58:42;4.90;;;1.20;;
71771;SDS011;59606;52.138;5.424;2022-12-07T17:01:10;5.55;;;1.30;;
71771;SDS011;59606;52.138;5.424;2022-12-07T17:03:42;7.50;;;2.13;;
71771;SDS011;59606;52.138;5.424;2022-12-07T17:06:11;7.70;;;1.83;;
71771;SDS011;59606;52.138;5.424;2022-12-07T17:08:41;3.00;;;1.60;;
71771;SDS011;59606;52.138;5.424;2022-12-07T17:11:16;3.40;;;1.30;;
71771;SDS011;59606;52.138;5.424;2022-12-07T17:13:44;8.77;;;3.10;;
71771;SDS011;59606;52.138;5.424;2022-12-07T17:16:30;13.52;;;8.50;;
71771;SDS011;59606;52.138;5.424;2022-12-07T17:18:58;11.27;;;7.20;;
71771;SDS011;59606;52.138;5.424;2022-12-07T17:21:25;17.70;;;11.38;;
71771;SDS011;59606;52.138;5.424;2022-12-07T17:23:51;22.27;;;14.98;;
71771;SDS011;59606;52.138;5.424;2022-12-07T17:26:19;15.57;;;8.45;;